Time;durP1;ratioP1;P1;durP2;ratioP2;P2;SDS_P1;SDS_P2;PMS_P1;PMS_P2;Temp;Humidity;BMP_temperature;BMP_pressure;BME280_temperature;BME280_humidity;BME280_pressure;Samples;Min_cycle;Max_cycle;Signal;HPM_P1;HPM_P2
2022/07/24 00:01:11;;;;;;;;;;;;;;;20.83;87.77;100148.74;1400114;93;20451;-81
2022/07/24 00:03:39;;;;;;;;;;;;;;;20.81;88.57;100155.38;1376059;94;20321;-81
2022/07/24 00:06:06;;;;;;;;;;;;;;;20.69;88.22;100162.01;1399582;93;20395;-82
2022/07/24 00:08:35;;;;;;;;;;;;;;;20.61;88.60;100163.09;1392176;93;20365;-82
2022/07/24 00:11:02;;;;;;;;;;;;;;;20.56;89.09;100156.20;1398698;92;20381;-83
2022/07/24 00:13:28;;;;;;;;;;;;;;;20.53;88.29;100163.37;1387689;93;20487;-83
2022/07/24 00:15:56;;;;;;;;;;;;;;;20.51;88.24;100165.41;1416600;90;20927;-83
2022/07/24 00:18:22;;;;;;;;;;;;;;;20.43;89.60;100172.43;1428971;90;20425;-82
2022/07/24 00:20:50;;;;;;;;;;;;;;;20.41;88.19;100175.84;1427240;91;20334;-81
2022/07/24 00:23:16;;;;;;;;;;;;;;;20.41;87.75;100172.63;1425628;91;20350;-82
2022/07/24 00:25:42;;;;;;;;;;;;;;;20.41;87.51;100167.78;1423859;91;20438;-81
2022/07/24 00:28:08;;;;;;;;;;;;;;;20.42;87.66;100166.20;1424960;91;20289;-81
2022/07/24 00:30:37;;;;;;;;;;;;;;;20.42;88.27;100166.73;1425863;91;20287;-81
2022/07/24 00:33:03;;;;;;;;;;;;;;;20.42;88.03;100164.05;1422116;91;20303;-81
2022/07/24 00:35:29;;;;;;;;;;;;;;;20.41;87.88;100157.03;1418768;92;20388;-82
2022/07/24 00:37:58;;;;;;;;;;;;;;;20.46;87.89;100159.89;1422531;91;20305;-82
2022/07/24 00:40:26;;;;;;;;;;;;;;;20.47;87.35;100153.47;1424538;91;20502;-82
2022/07/24 00:42:53;;;;;;;;;;;;;;;20.44;88.21;100163.31;1429072;91;20336;-82
2022/07/24 00:45:22;;;;;;;;;;;;;;;20.41;88.00;100161.88;1419920;91;20554;-82
2022/07/24 00:47:49;;;;;;;;;;;;;;;20.39;88.07;100153.73;1419978;90;21091;-82
2022/07/24 00:50:18;;;;;;;;;;;;;;;20.38;88.12;100161.50;1412478;91;20937;-83
2022/07/24 00:52:47;;;;;;;;;;;;;;;20.39;86.91;100159.11;1420122;91;20447;-82
2022/07/24 00:55:13;;;;;;;;;;;;;;;20.41;87.08;100157.03;1422533;91;20327;-82
2022/07/24 00:57:43;;;;;;;;;;;;;;;20.42;87.08;100166.73;1415099;91;20272;-82
2022/07/24 01:00:10;;;;;;;;;;;;;;;20.43;86.62;100171.08;1418308;91;20415;-82
2022/07/24 01:02:40;;;;;;;;;;;;;;;20.45;86.91;100162.26;1503035;92;20348;-82
2022/07/24 01:05:09;;;;;;;;;;;;;;;20.47;88.05;100164.22;1459237;91;20854;-82
2022/07/24 01:07:37;;;;;;;;;;;;;;;20.39;88.48;100173.89;1482484;91;20888;-84
2022/07/24 01:10:05;;;;;;;;;;;;;;;20.36;89.32;100176.48;1506870;91;20334;-84
2022/07/24 01:12:32;;;;;;;;;;;;;;;20.34;88.99;100183.12;1506777;91;20945;-85
2022/07/24 01:15:06;;;;;;;;;;;;;;;20.31;89.95;100183.55;1415590;91;20395;-84
2022/07/24 01:17:37;;;;;;;;;;;;;;;20.25;90.08;100186.09;1478546;91;20336;-84
2022/07/24 01:20:04;;;;;;;;;;;;;;;20.21;90.65;100192.92;1502031;91;20350;-84
2022/07/24 01:22:30;;;;;;;;;;;;;;;20.20;89.84;100198.00;1506691;91;20352;-84
2022/07/24 01:24:56;;;;;;;;;;;;;;;20.20;89.99;100193.97;1500889;91;20342;-83
2022/07/24 01:27:23;;;;;;;;;;;;;;;20.25;88.61;100190.62;1492743;91;20284;-83
2022/07/24 01:29:49;;;;;;;;;;;;;;;20.29;89.28;100195.36;1506658;91;20276;-83
2022/07/24 01:32:21;;;;;;;;;;;;;;;20.29;88.46;100198.04;1505836;91;20329;-84
2022/07/24 01:34:47;;;;;;;;;;;;;;;20.32;87.93;100206.72;1505992;91;20314;-83
2022/07/24 01:37:13;;;;;;;;;;;;;;;20.31;87.43;100215.80;1449725;91;20276;-84
2022/07/24 01:39:40;;;;;;;;;;;;;;;20.26;89.48;100219.97;1507122;91;20300;-83
2022/07/24 01:42:06;;;;;;;;;;;;;;;20.22;88.02;100225.46;1506831;91;21020;-82
2022/07/24 01:44:32;;;;;;;;;;;;;;;20.20;87.19;100230.77;1506713;91;20262;-82
2022/07/24 01:47:04;;;;;;;;;;;;;;;20.14;90.37;100231.61;1386307;91;20344;-83
2022/07/24 01:49:34;;;;;;;;;;;;;;;20.05;89.38;100228.34;1342797;91;20805;-83
2022/07/24 01:52:00;;;;;;;;;;;;;;;19.98;91.47;100224.88;1505132;91;20230;-83
2022/07/24 01:54:28;;;;;;;;;;;;;;;19.91;90.54;100230.79;1505435;91;20298;-83
2022/07/24 01:56:54;;;;;;;;;;;;;;;19.89;89.09;100232.89;1507290;91;20261;-83
2022/07/24 01:59:19;;;;;;;;;;;;;;;19.86;90.60;100227.42;1366646;91;20355;-83
2022/07/24 02:01:46;;;;;;;;;;;;;;;19.79;91.75;100228.80;1504335;91;20222;-83
2022/07/24 02:04:12;;;;;;;;;;;;;;;19.74;94.36;100223.76;1506155;91;20346;-83
2022/07/24 02:06:38;;;;;;;;;;;;;;;19.67;93.88;100229.13;1459884;91;20237;-81
2022/07/24 02:09:04;;;;;;;;;;;;;;;19.66;93.00;100227.50;1503408;92;20321;-82
2022/07/24 02:11:30;;;;;;;;;;;;;;;19.70;92.39;100222.52;1502862;92;20456;-82
2022/07/24 02:13:59;;;;;;;;;;;;;;;19.67;96.16;100222.95;1506898;91;20328;-81
2022/07/24 02:16:24;;;;;;;;;;;;;;;19.65;94.37;100223.17;1508952;91;20820;-81
2022/07/24 02:18:53;;;;;;;;;;;;;;;19.64;94.43;100231.39;1431978;91;20261;-80
2022/07/24 02:21:19;;;;;;;;;;;;;;;19.67;92.38;100239.87;1448205;91;20930;-81
2022/07/24 02:23:44;;;;;;;;;;;;;;;19.74;91.01;100243.89;1506315;91;20290;-81
2022/07/24 02:26:11;;;;;;;;;;;;;;;19.79;92.51;100245.41;1506871;91;20276;-80
2022/07/24 02:28:39;;;;;;;;;;;;;;;19.81;91.84;100254.08;1506898;91;20878;-80
2022/07/24 02:31:11;;;;;;;;;;;;;;;19.80;91.76;100260.50;1506725;91;20270;-80
2022/07/24 02:33:37;;;;;;;;;;;;;;;19.78;93.59;100273.30;1506945;91;20285;-80
2022/07/24 02:36:04;;;;;;;;;;;;;;;19.80;90.68;100290.86;1437299;91;20278;-81
2022/07/24 02:38:30;;;;;;;;;;;;;;;19.84;92.95;100292.06;1422316;91;20291;-81
2022/07/24 02:40:56;;;;;;;;;;;;;;;19.80;95.05;100293.54;1505365;91;20245;-80
2022/07/24 02:43:22;;;;;;;;;;;;;;;19.76;95.54;100288.27;1506943;91;20221;-81
2022/07/24 02:45:48;;;;;;;;;;;;;;;19.76;94.95;100272.68;1507028;91;20362;-81
2022/07/24 02:48:14;;;;;;;;;;;;;;;19.75;92.78;100261.64;1502444;91;20244;-81
2022/07/24 02:50:40;;;;;;;;;;;;;;;19.71;92.73;100273.33;1497608;91;20267;-81
2022/07/24 02:53:07;;;;;;;;;;;;;;;19.71;91.30;100269.80;1498834;91;20244;-81
2022/07/24 02:55:33;;;;;;;;;;;;;;;19.73;91.61;100270.42;1488062;91;20346;-80
2022/07/24 02:57:59;;;;;;;;;;;;;;;19.74;92.61;100268.88;1452121;91;20253;-80
2022/07/24 03:00:25;;;;;;;;;;;;;;;19.68;92.92;100272.41;1482022;91;20277;-80
2022/07/24 03:02:51;;;;;;;;;;;;;;;19.62;92.72;100278.56;1447002;91;20261;-80
2022/07/24 03:05:17;;;;;;;;;;;;;;;19.62;92.17;100282.59;1504742;91;20270;-80
2022/07/24 03:07:52;;;;;;;;;;;;;;;19.63;91.35;100294.18;1498983;91;20236;-81
2022/07/24 03:10:18;;;;;;;;;;;;;;;19.67;90.55;100312.36;1502358;91;20333;-82
2022/07/24 03:12:43;;;;;;;;;;;;;;;19.71;90.32;100314.95;1485217;91;20224;-82
2022/07/24 03:15:10;;;;;;;;;;;;;;;19.77;90.63;100305.23;1486601;91;20369;-81
2022/07/24 03:17:36;;;;;;;;;;;;;;;19.79;90.73;100299.95;1377132;91;20291;-81
2022/07/24 03:20:04;;;;;;;;;;;;;;;19.76;91.63;100300.34;1499553;91;20284;-80
2022/07/24 03:22:30;;;;;;;;;;;;;;;19.70;91.56;100303.06;1501744;91;20238;-81
2022/07/24 03:24:56;;;;;;;;;;;;;;;19.66;91.19;100305.88;1493418;91;20861;-81
2022/07/24 03:27:23;;;;;;;;;;;;;;;19.64;91.09;100307.38;1499919;91;20262;-81
2022/07/24 03:29:49;;;;;;;;;;;;;;;19.67;91.75;100310.20;1498035;91;21207;-82
2022/07/24 03:32:15;;;;;;;;;;;;;;;19.67;91.63;100308.85;1496435;91;20244;-82
2022/07/24 03:34:41;;;;;;;;;;;;;;;19.67;92.49;100312.36;1500348;91;20337;-81
2022/07/24 03:37:07;;;;;;;;;;;;;;;19.66;91.33;100310.72;1496654;91;20274;-81
2022/07/24 03:39:33;;;;;;;;;;;;;;;19.70;91.34;100318.65;1482356;91;20350;-81
2022/07/24 03:42:06;;;;;;;;;;;;;;;19.67;95.70;100317.73;1485217;91;20295;-82
2022/07/24 03:44:31;;;;;;;;;;;;;;;19.63;96.81;100326.40;1416944;91;20281;-82
2022/07/24 03:46:57;;;;;;;;;;;;;;;19.65;98.71;100330.56;1418286;91;20802;-82
2022/07/24 03:49:23;;;;;;;;;;;;;;;19.67;98.08;100320.41;1411693;91;20349;-81
2022/07/24 03:51:50;;;;;;;;;;;;;;;19.66;96.80;100325.48;1419707;91;20290;-82
2022/07/24 03:54:17;;;;;;;;;;;;;;;19.66;96.60;100332.72;1409793;91;20324;-81
2022/07/24 03:56:43;;;;;;;;;;;;;;;19.72;94.49;100331.35;1412633;90;20297;-80
2022/07/24 03:59:09;;;;;;;;;;;;;;;19.79;93.76;100332.18;1404667;91;20577;-80
2022/07/24 04:01:35;;;;;;;;;;;;;;;19.87;93.67;100325.73;1429792;91;20376;-80
2022/07/24 04:04:04;;;;;;;;;;;;;;;19.97;92.80;100317.25;1416774;91;20318;-80
2022/07/24 04:06:32;;;;;;;;;;;;;;;20.08;91.51;100320.59;1415030;91;20530;-80
2022/07/24 04:09:00;;;;;;;;;;;;;;;20.21;91.40;100320.55;1413283;91;20413;-80
2022/07/24 04:11:26;;;;;;;;;;;;;;;20.35;90.48;100317.29;1413302;91;20965;-81
2022/07/24 04:13:52;;;;;;;;;;;;;;;20.43;91.24;100310.33;1418658;91;20439;-82
2022/07/24 04:16:18;;;;;;;;;;;;;;;20.48;92.07;100313.70;1410653;92;20358;-81
2022/07/24 04:18:44;;;;;;;;;;;;;;;20.55;92.67;100306.98;1410994;92;20304;-81
2022/07/24 04:21:11;;;;;;;;;;;;;;;20.59;92.91;100309.02;1414407;92;20892;-81
2022/07/24 04:23:37;;;;;;;;;;;;;;;20.67;92.56;100310.11;1398831;91;20321;-81
2022/07/24 04:26:06;;;;;;;;;;;;;;;20.73;91.78;100325.37;1398013;92;20924;-81
2022/07/24 04:28:32;;;;;;;;;;;;;;;20.87;90.64;100322.60;1417030;91;20293;-81
2022/07/24 04:30:58;;;;;;;;;;;;;;;21.02;90.48;100319.59;1408233;91;20499;-83
2022/07/24 04:33:31;;;;;;;;;;;;;;;21.14;88.39;100315.14;1403519;91;20839;-81
2022/07/24 04:36:02;;;;;;;;;;;;;;;21.22;87.16;100316.74;1411490;91;20982;-81
2022/07/24 04:38:28;;;;;;;;;;;;;;;21.32;87.61;100322.44;1398182;92;20327;-80
2022/07/24 04:40:55;;;;;;;;;;;;;;;21.37;86.56;100323.98;1408460;91;20305;-80
2022/07/24 04:43:21;;;;;;;;;;;;;;;21.42;86.47;100330.88;1416118;91;20364;-79
2022/07/24 04:45:48;;;;;;;;;;;;;;;21.49;86.57;100341.08;1412481;92;21479;-80
2022/07/24 04:48:15;;;;;;;;;;;;;;;21.51;86.45;100337.62;1407332;92;20329;-80
2022/07/24 04:50:41;;;;;;;;;;;;;;;21.61;86.28;100335.25;1410454;92;20900;-80
2022/07/24 04:53:07;;;;;;;;;;;;;;;21.64;86.51;100325.91;1420453;92;20372;-82
2022/07/24 04:55:34;;;;;;;;;;;;;;;21.71;86.35;100333.91;1411585;91;20282;-82
2022/07/24 04:58:01;;;;;;;;;;;;;;;21.79;85.74;100339.02;1405692;92;21066;-81
2022/07/24 05:00:27;;;;;;;;;;;;;;;21.73;84.89;100346.64;1399588;91;20909;-80
2022/07/24 05:02:53;;;;;;;;;;;;;;;21.78;84.79;100352.16;1406289;92;20372;-80
2022/07/24 05:05:18;;;;;;;;;;;;;;;21.83;84.11;100356.36;1408268;91;20402;-82
2022/07/24 05:07:45;;;;;;;;;;;;;;;21.86;83.30;100353.22;1414360;91;20636;-82
2022/07/24 05:10:16;;;;;;;;;;;;;;;21.85;83.36;100363.70;1395187;92;21068;-82
2022/07/24 05:12:43;;;;;;;;;;;;;;;21.92;83.20;100362.28;1405287;91;20365;-83
2022/07/24 05:15:10;;;;;;;;;;;;;;;21.94;83.18;100361.02;1415283;91;20306;-83
2022/07/24 05:17:37;;;;;;;;;;;;;;;21.95;83.45;100361.83;1407758;91;20327;-82
2022/07/24 05:20:04;;;;;;;;;;;;;;;21.97;83.88;100355.70;1409260;92;20809;-82
2022/07/24 05:22:31;;;;;;;;;;;;;;;22.03;83.90;100344.84;1409089;91;21677;-82
2022/07/24 05:24:58;;;;;;;;;;;;;;;22.11;83.71;100335.64;1409497;91;20439;-83
2022/07/24 05:27:24;;;;;;;;;;;;;;;22.19;82.62;100335.90;1418690;91;20439;-84
2022/07/24 05:29:50;;;;;;;;;;;;;;;22.27;82.09;100339.11;1406400;91;20597;-83
2022/07/24 05:32:16;;;;;;;;;;;;;;;22.32;81.85;100339.76;1414476;91;20477;-83
2022/07/24 05:34:42;;;;;;;;;;;;;;;22.36;82.01;100346.89;1409929;91;20350;-83
2022/07/24 05:37:08;;;;;;;;;;;;;;;22.33;80.93;100345.47;1406059;91;20411;-83
2022/07/24 05:39:34;;;;;;;;;;;;;;;22.37;80.75;100341.25;1402614;92;21033;-83
2022/07/24 05:42:03;;;;;;;;;;;;;;;22.44;80.56;100335.77;1403813;92;20306;-83
2022/07/24 05:44:29;;;;;;;;;;;;;;;22.53;80.41;100340.63;1412200;91;20336;-83
2022/07/24 05:46:55;;;;;;;;;;;;;;;22.71;80.29;100339.75;1414298;91;20930;-83
2022/07/24 05:49:21;;;;;;;;;;;;;;;22.86;79.42;100333.92;1420267;92;20358;-83
2022/07/24 05:51:47;;;;;;;;;;;;;;;23.05;78.60;100329.85;1413814;91;20470;-81
2022/07/24 05:54:13;;;;;;;;;;;;;;;23.12;77.26;100334.60;1401563;91;21923;-81
2022/07/24 05:56:39;;;;;;;;;;;;;;;23.24;77.44;100335.43;1416129;91;20313;-81
2022/07/24 05:59:07;;;;;;;;;;;;;;;23.37;76.00;100337.91;1407221;91;20381;-81
2022/07/24 06:01:33;;;;;;;;;;;;;;;23.39;73.87;100339.86;1405980;91;20500;-81
2022/07/24 06:03:59;;;;;;;;;;;;;;;23.43;73.03;100346.96;1404395;91;20393;-80
2022/07/24 06:06:25;;;;;;;;;;;;;;;23.43;72.43;100349.13;1404735;91;20442;-80
2022/07/24 06:08:51;;;;;;;;;;;;;;;23.40;71.16;100348.78;1403042;91;20877;-80
2022/07/24 06:11:22;;;;;;;;;;;;;;;23.34;71.57;100350.54;1419028;92;20346;-80
2022/07/24 06:13:50;;;;;;;;;;;;;;;23.42;71.87;100354.25;1408793;91;20432;-80
2022/07/24 06:16:16;;;;;;;;;;;;;;;23.47;72.69;100355.41;1405185;91;21058;-80
2022/07/24 06:18:42;;;;;;;;;;;;;;;23.41;71.11;100356.63;1418251;92;20392;-80
2022/07/24 06:21:08;;;;;;;;;;;;;;;23.56;71.99;100359.40;1408263;92;20812;-80
2022/07/24 06:23:39;;;;;;;;;;;;;;;23.50;70.80;100360.34;1414411;92;20890;-80
2022/07/24 06:26:05;;;;;;;;;;;;;;;23.58;71.04;100362.70;1411763;92;20860;-80
2022/07/24 06:28:32;;;;;;;;;;;;;;;23.64;71.05;100353.64;1408315;92;20347;-80
2022/07/24 06:30:58;;;;;;;;;;;;;;;23.58;70.16;100351.89;1412446;92;20428;-80
2022/07/24 06:33:24;;;;;;;;;;;;;;;23.82;70.49;100354.07;1418033;91;20326;-80
2022/07/24 06:35:50;;;;;;;;;;;;;;;23.94;70.13;100351.34;1416315;92;20348;-80
2022/07/24 06:38:16;;;;;;;;;;;;;;;24.06;70.79;100358.39;1418289;92;20303;-82
2022/07/24 06:40:42;;;;;;;;;;;;;;;24.17;68.79;100352.68;1410548;91;20304;-86
2022/07/24 06:43:08;;;;;;;;;;;;;;;24.16;68.08;100363.18;1412761;92;20423;-87
2022/07/24 06:45:36;;;;;;;;;;;;;;;24.00;68.79;100359.89;1416892;92;20303;-88
2022/07/24 06:48:03;;;;;;;;;;;;;;;23.82;68.52;100356.27;1404715;92;20290;-88
2022/07/24 06:50:29;;;;;;;;;;;;;;;23.81;69.05;100360.55;1410491;92;20537;-84
2022/07/24 06:52:55;;;;;;;;;;;;;;;23.64;68.69;100367.16;1408056;91;21611;-86
2022/07/24 06:55:21;;;;;;;;;;;;;;;23.52;69.39;100369.04;1411436;91;20282;-86
2022/07/24 06:57:47;;;;;;;;;;;;;;;23.52;70.00;100375.80;1417036;92;20951;-85
2022/07/24 07:00:13;;;;;;;;;;;;;;;23.44;70.12;100372.91;1415335;91;20373;-84
2022/07/24 07:02:40;;;;;;;;;;;;;;;23.30;69.76;100369.59;1415559;92;20369;-85
2022/07/24 07:05:07;;;;;;;;;;;;;;;23.30;70.35;100370.13;1414865;92;20310;-85
2022/07/24 07:07:34;;;;;;;;;;;;;;;23.55;70.86;100369.39;1417040;92;20318;-85
2022/07/24 07:10:00;;;;;;;;;;;;;;;23.65;69.99;100377.73;1415436;92;20309;-85
2022/07/24 07:12:28;;;;;;;;;;;;;;;23.75;69.24;100375.00;1411839;91;20328;-86
2022/07/24 07:14:54;;;;;;;;;;;;;;;24.03;70.17;100373.73;1411657;92;21149;-86
2022/07/24 07:17:19;;;;;;;;;;;;;;;24.27;69.72;100373.15;1391670;93;20312;-86
2022/07/24 07:19:45;;;;;;;;;;;;;;;24.37;67.08;100372.55;1390256;93;20305;-86
2022/07/24 07:22:17;;;;;;;;;;;;;;;24.47;65.39;100373.30;1389779;93;21091;-86
2022/07/24 07:24:43;;;;;;;;;;;;;;;24.69;65.48;100375.63;1390187;93;20377;-85
2022/07/24 07:27:11;;;;;;;;;;;;;;;24.97;65.30;100375.30;1406915;92;20609;-86
2022/07/24 07:29:37;;;;;;;;;;;;;;;25.24;64.20;100379.60;1397986;92;20302;-86
2022/07/24 07:32:05;;;;;;;;;;;;;;;25.20;62.58;100381.14;1400205;92;20374;-84
2022/07/24 07:34:32;;;;;;;;;;;;;;;25.08;63.19;100381.72;1395920;92;21700;-84
2022/07/24 07:36:58;;;;;;;;;;;;;;;25.10;63.40;100387.19;1380449;93;20312;-85
2022/07/24 07:39:27;;;;;;;;;;;;;;;24.95;63.04;100389.09;1397422;92;20381;-86
2022/07/24 07:41:53;;;;;;;;;;;;;;;24.81;62.90;100389.64;1378725;92;20281;-88
2022/07/24 07:44:19;;;;;;;;;;;;;;;24.74;62.83;100391.97;1405539;92;20416;-88
2022/07/24 07:46:45;;;;;;;;;;;;;;;24.67;63.05;100384.52;1393773;92;20314;-87
2022/07/24 07:49:13;;;;;;;;;;;;;;;24.53;63.02;100389.39;1400218;92;20427;-88
2022/07/24 07:51:40;;;;;;;;;;;;;;;24.19;63.45;100395.15;1385975;92;20305;-89
2022/07/24 07:54:06;;;;;;;;;;;;;;;24.01;64.02;100393.42;1394152;92;20414;-91
2022/07/24 07:56:32;;;;;;;;;;;;;;;23.97;64.32;100397.67;1400169;93;20365;-86
2022/07/24 07:59:00;;;;;;;;;;;;;;;24.03;64.85;100404.83;1406215;92;20379;-88
2022/07/24 08:01:26;;;;;;;;;;;;;;;24.06;65.28;100403.53;1415888;91;20926;-86
2022/07/24 08:03:52;;;;;;;;;;;;;;;23.98;65.15;100411.47;1405748;92;20357;-86
2022/07/24 08:06:19;;;;;;;;;;;;;;;23.98;65.54;100413.36;1411633;92;20310;-85
2022/07/24 08:08:46;;;;;;;;;;;;;;;24.08;66.05;100421.17;1390076;92;20450;-87
2022/07/24 08:11:13;;;;;;;;;;;;;;;24.15;65.25;100425.09;1391260;92;20325;-84
2022/07/24 08:13:39;;;;;;;;;;;;;;;24.12;64.02;100431.50;1395901;92;20974;-85
2022/07/24 08:16:06;;;;;;;;;;;;;;;24.02;63.66;100446.95;1409929;91;20365;-86
2022/07/24 08:18:36;;;;;;;;;;;;;;;23.96;63.71;100431.67;1433014;91;20492;-86
2022/07/24 08:21:02;;;;;;;;;;;;;;;23.94;63.99;100443.24;1426984;91;20403;-86
2022/07/24 08:23:28;;;;;;;;;;;;;;;23.90;64.40;100443.44;1421966;91;20350;-86
2022/07/24 08:25:54;;;;;;;;;;;;;;;23.79;64.11;100445.07;1428899;91;20863;-86
2022/07/24 08:28:22;;;;;;;;;;;;;;;23.90;64.56;100454.25;1425494;91;20335;-85
2022/07/24 08:30:48;;;;;;;;;;;;;;;24.00;64.69;100459.91;1428316;91;20506;-85
2022/07/24 08:33:15;;;;;;;;;;;;;;;23.98;64.94;100472.82;1428398;91;21223;-85
2022/07/24 08:35:41;;;;;;;;;;;;;;;23.93;64.96;100471.34;1425363;91;20414;-86
2022/07/24 08:38:07;;;;;;;;;;;;;;;23.98;64.83;100461.47;1428899;91;20320;-86
2022/07/24 08:40:39;;;;;;;;;;;;;;;23.95;64.49;100466.00;1431469;91;20298;-86
2022/07/24 08:43:07;;;;;;;;;;;;;;;24.01;64.96;100468.30;1427817;91;20305;-85
2022/07/24 08:45:39;;;;;;;;;;;;;;;24.04;64.33;100468.64;1428751;91;20439;-86
2022/07/24 08:48:08;;;;;;;;;;;;;;;24.06;64.98;100469.77;1423306;91;20324;-86
2022/07/24 08:50:37;;;;;;;;;;;;;;;24.16;64.63;100476.73;1409617;93;20346;-86
2022/07/24 08:53:04;;;;;;;;;;;;;;;24.23;64.54;100477.99;1416041;91;20302;-85
2022/07/24 08:55:31;;;;;;;;;;;;;;;24.37;64.11;100471.78;1424727;91;20433;-86
2022/07/24 08:57:59;;;;;;;;;;;;;;;24.48;63.98;100484.49;1425064;91;20415;-86
2022/07/24 09:00:27;;;;;;;;;;;;;;;24.51;64.28;100485.37;1429397;91;20403;-90
2022/07/24 09:02:53;;;;;;;;;;;;;;;24.50;63.78;100490.50;1427405;91;20439;-92
2022/07/24 09:05:20;;;;;;;;;;;;;;;24.53;62.36;100484.07;1426791;91;20533;-91
2022/07/24 09:07:46;;;;;;;;;;;;;;;24.52;61.63;100488.38;1430645;91;20318;-91
2022/07/24 09:10:18;;;;;;;;;;;;;;;24.33;60.01;100489.83;1424163;91;20321;-91
2022/07/24 09:12:46;;;;;;;;;;;;;;;24.55;60.66;100491.97;1424254;91;20340;-92
2022/07/24 09:15:19;;;;;;;;;;;;;;;24.99;60.40;100499.06;1428875;91;20469;-88
2022/07/24 09:17:50;;;;;;;;;;;;;;;25.47;60.32;100495.66;1424099;90;20936;-89
2022/07/24 09:20:16;;;;;;;;;;;;;;;25.88;59.28;100491.75;1418151;91;20350;-89
2022/07/24 09:22:44;;;;;;;;;;;;;;;26.13;56.71;100489.15;1423963;91;20406;-90
2022/07/24 09:25:24;;;;;;;;;;;;;;;26.46;55.92;100478.19;1431274;91;20908;-91
2022/07/24 09:28:01;;;;;;;;;;;;;;;26.79;55.19;100490.05;1402041;91;20405;-91
2022/07/24 09:30:36;;;;;;;;;;;;;;;26.47;52.28;100497.49;1411968;91;20288;-88
2022/07/24 09:33:04;;;;;;;;;;;;;;;26.17;52.20;100497.05;1422827;91;20381;-89
2022/07/24 09:35:34;;;;;;;;;;;;;;;26.08;52.74;100504.26;1421262;91;20514;-89
2022/07/24 09:38:02;;;;;;;;;;;;;;;26.19;53.33;100499.00;1424301;91;20527;-90
2022/07/24 09:40:31;;;;;;;;;;;;;;;26.53;53.40;100495.70;1426977;91;20364;-89
2022/07/24 09:43:12;;;;;;;;;;;;;;;26.76;52.13;100494.63;1429511;91;20406;-88
2022/07/24 09:46:17;;;;;;;;;;;;;;;26.87;51.72;100500.43;1425870;91;20335;-88
2022/07/24 09:49:00;;;;;;;;;;;;;;;27.13;50.33;100502.92;1426787;91;20357;-88
2022/07/24 09:51:27;;;;;;;;;;;;;;;27.05;49.70;100499.84;1428418;91;20439;-89
2022/07/24 09:54:00;;;;;;;;;;;;;;;27.25;48.11;100501.44;1423178;91;20468;-90
2022/07/24 09:56:27;;;;;;;;;;;;;;;27.39;48.81;100498.59;1423691;91;20396;-89
2022/07/24 09:58:55;;;;;;;;;;;;;;;27.35;49.22;100508.31;1366094;91;20268;-88
2022/07/24 10:01:25;;;;;;;;;;;;;;;26.82;47.51;100494.97;1478993;91;20245;-88
2022/07/24 10:03:53;;;;;;;;;;;;;;;26.94;48.43;100498.90;1507163;91;20214;-90
2022/07/24 10:06:25;;;;;;;;;;;;;;;27.11;48.64;100493.38;1507323;91;20314;-90
2022/07/24 10:08:52;;;;;;;;;;;;;;;27.07;48.04;100493.59;1356729;91;20305;-89
2022/07/24 10:11:19;;;;;;;;;;;;;;;27.06;47.49;100503.64;1491999;91;20307;-88
2022/07/24 10:13:46;;;;;;;;;;;;;;;27.07;47.56;100504.45;1481453;91;20382;-87
2022/07/24 10:16:15;;;;;;;;;;;;;;;26.83;47.47;100506.09;1504596;90;20910;-90
2022/07/24 10:18:57;;;;;;;;;;;;;;;26.91;48.49;100504.84;1340857;93;20361;-92
2022/07/24 10:21:30;;;;;;;;;;;;;;;27.21;49.29;100493.50;1500433;91;20266;-90
2022/07/24 10:24:05;;;;;;;;;;;;;;;27.05;47.74;100495.77;1526710;90;20248;-89
2022/07/24 10:26:53;;;;;;;;;;;;;;;27.05;46.18;100502.56;1515720;90;20315;-89
2022/07/24 10:29:22;;;;;;;;;;;;;;;27.20;46.62;100504.91;1507116;91;20396;-90
2022/07/24 10:31:54;;;;;;;;;;;;;;;27.30;46.69;100505.55;1497795;91;20893;-88
2022/07/24 10:34:41;;;;;;;;;;;;;;;27.34;46.48;100503.97;1506081;91;20276;-90
2022/07/24 10:37:28;;;;;;;;;;;;;;;27.48;46.74;100498.09;1502701;91;20407;-90
2022/07/24 10:40:15;;;;;;;;;;;;;;;27.78;46.89;100501.08;1362765;93;20326;-91
2022/07/24 10:43:10;;;;;;;;;;;;;;;28.04;44.83;100495.32;1354570;91;20257;-90
2022/07/24 10:45:40;;;;;;;;;;;;;;;28.04;44.56;100494.50;1505986;91;20896;-90
2022/07/24 10:48:23;;;;;;;;;;;;;;;28.29;44.11;100496.02;1500968;91;20293;-90
2022/07/24 10:51:07;;;;;;;;;;;;;;;28.44;44.08;100489.87;1495275;91;20790;-90
2022/07/24 10:53:46;;;;;;;;;;;;;;;28.62;42.77;100487.77;1486760;91;21273;-90
2022/07/24 10:56:22;;;;;;;;;;;;;;;28.37;42.38;100497.95;1506852;91;20284;-89
2022/07/24 10:59:02;;;;;;;;;;;;;;;27.98;42.81;100486.03;1422608;91;20339;-89
2022/07/24 11:01:34;;;;;;;;;;;;;;;27.94;42.90;100494.42;1496693;91;20279;-90
2022/07/24 11:04:05;;;;;;;;;;;;;;;27.92;43.50;100493.34;1429486;91;20886;-90
2022/07/24 11:06:43;;;;;;;;;;;;;;;28.01;43.58;100496.39;1420529;91;20880;-90
2022/07/24 11:09:12;;;;;;;;;;;;;;;27.77;43.86;100485.86;1425339;91;21107;-90
2022/07/24 11:11:44;;;;;;;;;;;;;;;27.99;43.52;100492.56;1426099;91;20298;-89
2022/07/24 11:14:10;;;;;;;;;;;;;;;27.78;44.33;100482.59;1424424;91;20287;-90
2022/07/24 11:16:36;;;;;;;;;;;;;;;27.94;44.61;100486.27;1429649;91;20407;-89
2022/07/24 11:19:06;;;;;;;;;;;;;;;28.21;43.72;100484.27;1428159;91;20343;-90
2022/07/24 11:21:37;;;;;;;;;;;;;;;28.53;44.21;100484.73;1426189;91;21642;-89
2022/07/24 11:24:24;;;;;;;;;;;;;;;28.91;42.72;100475.88;1428948;91;20385;-91
2022/07/24 11:26:49;;;;;;;;;;;;;;;29.27;43.23;100474.63;1411412;91;20318;-91
2022/07/24 11:29:26;;;;;;;;;;;;;;;29.53;43.23;100481.73;1426812;91;20310;-91
2022/07/24 11:31:52;;;;;;;;;;;;;;;29.59;41.47;100478.47;1425296;91;21083;-89
2022/07/24 11:34:17;;;;;;;;;;;;;;;29.67;41.03;100475.22;1426032;90;20850;-91
2022/07/24 11:36:47;;;;;;;;;;;;;;;29.78;41.85;100478.73;1420371;91;20483;-89
2022/07/24 11:39:15;;;;;;;;;;;;;;;29.88;41.42;100471.92;1405861;93;20912;-88
2022/07/24 11:41:50;;;;;;;;;;;;;;;30.08;40.46;100469.15;1402792;91;20296;-88
2022/07/24 11:44:25;;;;;;;;;;;;;;;30.27;40.66;100465.32;1505026;90;20919;-89
2022/07/24 11:46:52;;;;;;;;;;;;;;;30.29;40.73;100465.03;1393839;91;20244;-89
2022/07/24 11:49:18;;;;;;;;;;;;;;;30.46;40.36;100457.31;1504750;91;20263;-89
2022/07/24 11:51:49;;;;;;;;;;;;;;;30.62;40.30;100462.73;1349224;91;20229;-89
2022/07/24 11:54:22;;;;;;;;;;;;;;;30.49;39.00;100452.66;1503064;91;20347;-89
2022/07/24 11:56:48;;;;;;;;;;;;;;;30.04;38.19;100458.53;1506518;91;20269;-89
2022/07/24 11:59:25;;;;;;;;;;;;;;;30.04;38.90;100461.81;1415844;91;20277;-89
2022/07/24 12:01:53;;;;;;;;;;;;;;;29.84;38.82;100455.84;1509111;90;20372;-89
2022/07/24 12:04:21;;;;;;;;;;;;;;;29.42;38.88;100448.73;1373055;92;20349;-89
2022/07/24 12:06:47;;;;;;;;;;;;;;;29.54;38.14;100453.37;1402445;91;20312;-89
2022/07/24 12:09:13;;;;;;;;;;;;;;;29.99;38.57;100453.63;1421104;92;20299;-88
2022/07/24 12:11:40;;;;;;;;;;;;;;;30.26;38.73;100445.92;1406595;91;20348;-87
2022/07/24 12:14:17;;;;;;;;;;;;;;;30.34;38.21;100434.44;1501910;91;20376;-88
2022/07/24 12:16:43;;;;;;;;;;;;;;;30.33;35.62;100436.09;1472368;91;20276;-89
2022/07/24 12:21:58;;;;;;;;;;;;;;;30.29;34.06;100428.17;1415883;85;20293;-86
2022/07/24 12:24:24;;;;;;;;;;;;;;;30.08;34.37;100437.77;1405125;88;20360;-86
2022/07/24 12:26:56;;;;;;;;;;;;;;;29.76;34.73;100432.66;1430472;90;20308;-87
2022/07/24 12:29:23;;;;;;;;;;;;;;;29.60;34.67;100423.64;1442694;90;20324;-87
2022/07/24 12:31:49;;;;;;;;;;;;;;;29.62;36.07;100424.73;1435114;86;20297;-86
2022/07/24 12:34:16;;;;;;;;;;;;;;;29.65;35.45;100428.31;1417999;91;20371;-87
2022/07/24 12:36:44;;;;;;;;;;;;;;;29.86;36.11;100438.64;1404959;91;20299;-87
2022/07/24 12:39:16;;;;;;;;;;;;;;;30.03;36.58;100436.41;1394772;92;20300;-86
2022/07/24 12:41:47;;;;;;;;;;;;;;;30.23;36.59;100425.20;1407067;90;20952;-87
2022/07/24 12:44:13;;;;;;;;;;;;;;;30.29;37.25;100426.81;1427163;89;21016;-84